This is the latest recevied weather packets stored in our database for station/object OE7BJT-13. If no packets are shown the sender has not sent any weather packets the latest 10 day(s).
| Time | Temp. | Humidity | Pressure | Rain* | Wind** | Luminosity | Snow |
|---|---|---|---|---|---|---|---|
| 1777838879 | 15.56° C | 46% | 1014 hPa | - | - | - | - |
| 1777838273 | 16.67° C | 42% | 1013 hPa | - | - | - | - |
| 1777837668 | 17.78° C | 36% | 1013 hPa | - | - | - | - |
| 1777837062 | 17.78° C | 38% | 1013 hPa | - | - | - | - |
| 1777836457 | 18.33° C | 35% | 1013 hPa | - | - | - | - |
| 1777835851 | 18.33° C | 36% | 1013 hPa | - | - | - | - |
| 1777834034 | 19.44° C | 31% | 1013 hPa | - | - | - | - |
| 1777829795 | 23.33° C | 21% | 1012 hPa | - | - | - | - |
| 1777829190 | 23.89° C | 18% | 1012 hPa | - | - | - | - |
| 1777827978 | 24.44° C | 17% | 1012 hPa | - | - | - | - |
| 1777827373 | 24.44° C | 18% | 1012 hPa | - | - | - | - |
| 1777825556 | 25° C | 16% | 1012 hPa | - | - | - | - |
| 1777824950 | 25° C | 17% | 1012 hPa | - | - | - | - |
| 1777824345 | 25.56° C | 18% | 1012 hPa | - | - | - | - |
| 1777823739 | 25.56° C | 17% | 1012 hPa | - | - | - | - |
| 1777823134 | 25.56° C | 19% | 1012 hPa | - | - | - | - |
| 1777822528 | 25.56° C | 20% | 1011 hPa | - | - | - | - |
| 1777821317 | 25.56° C | 16% | 1012 hPa | - | - | - | - |
| 1777820711 | 26.11° C | 14% | 1012 hPa | - | - | - | - |
| 1777820106 | 26.11° C | 13% | 1012 hPa | - | - | - | - |
| 1777818894 | 26.67° C | 14% | 1012 hPa | - | - | - | - |
| 1777817683 | 26.67° C | 13% | 1012 hPa | - | - | - | - |
| 1777816472 | 27.22° C | 13% | 1012 hPa | - | - | - | - |
| 1777815866 | 26.67° C | 15% | 1012 hPa | - | - | - | - |
| 1777815261 | 27.22° C | 18% | 1012 hPa | - | - | - | - |
* Rain since midnight (hover to see other rain measurements)
** Current wind speed in m/s (hover to see current wind gust speed)